Jiu Hua San — 9VBK2 — position and weather

sailwx.info

Track history (hours):
 
Tides and Currents Weather Stations Pressure Air Temp Water Temp Dewpoint Dewpoint Depression Visibility Wind Speed Wind Dir Waves Ship Positions

Jiu Hua San

Last reported at 2017-Aug-04 01:52 UTC. Time now 2017-Aug-19 03:46 UTC.
Position N 01°15' E 104°02'.
Warning: this ship's position is 15 days out of date.

Length 333 m; draft 20.6 m.

Type: Ship. MMSI: 565914000.

Date/timePositionNaut miles runAvg speedWind from/ knotsBaromVisibWave heightAir tempDewpointWater temp
2017-Aug-04 01:52N 01°15' E 104°02'411.1
2017-Aug-04 01:30N 01°14' E 103°58'612.0
2017-Aug-04 01:00N 01°12' E 103°52'510.6
2017-Aug-04 00:30N 01°10' E 103°47'4 8.5
2017-Aug-04 00:00N 01°07' E 103°44'611.3
2017-Aug-03 23:30N 01°04' E 103°40'611.8
2017-Aug-03 22:59N 01°06' E 103°34'612.3
2017-Aug-03 22:29N 01°09' E 103°29'612.4
2017-Aug-03 21:59N 01°12' E 103°23'812.1
2017-Aug-03 21:19N 01°17' E 103°17'  
Track history (hours):
 
Tides and Currents Weather Stations Pressure Air Temp Water Temp Dewpoint Dewpoint Depression Visibility Wind Speed Wind Dir Waves Ship Positions

Jiu Hua San

Last reported at 2017-Aug-04 01:52 UTC. Time now 2017-Aug-19 03:46 UTC.
Position N 01°15' E 104°02'.
Warning: this ship's position is 15 days out of date.

Length 333 m; draft 20.6 m.

Type: Ship. MMSI: 565914000.

Date/timePositionNaut miles runAvg speedWind from/ knotsBaromVisibWave heightAir tempDewpointWater temp
2017-Aug-04 01:52N 01°15' E 104°02'411.1
2017-Aug-04 01:30N 01°14' E 103°58'612.0
2017-Aug-04 01:00N 01°12' E 103°52'510.6
2017-Aug-04 00:30N 01°10' E 103°47'4 8.5
2017-Aug-04 00:00N 01°07' E 103°44'611.3
2017-Aug-03 23:30N 01°04' E 103°40'611.8
2017-Aug-03 22:59N 01°06' E 103°34'612.3
2017-Aug-03 22:29N 01°09' E 103°29'612.4
2017-Aug-03 21:59N 01°12' E 103°23'812.1
2017-Aug-03 21:19N 01°17' E 103°17'  

Dump ship's entire track history